Francitas, Texas
Current Conditions -  °F | °C
As of 10:53 AM on Thursday 23 Oct 2014 (Local Time) from KPSX Reporting Station
Clear Clear  
Wind Chill: 79°   Ceiling: Unl
Heat Index: 80°   Visibility: 10mi
Dew Point: 61°   Wind: 10mph
Humidity: 54%   Direction: 50°NE
Pressure: 30.12"   Gusts: NA
Location:  28.86°N, 96.34°W
Report Text: KPSX 231553Z AUTO 05009KT 10SM CLR 26/16 A3012 RMK AO2 SLP198 T02610161
Loading
Personal Weather Stations






























Interactive Weather Map
Tropical Storm Tracking
New forecast layout! Learn more

10-Day Weather Forecast

Advertisements
Track Severe Weather on mobile